Search for airport 
image banner adimage banner adimage banner ad
image banner ad

KCXP - Carson

Located in Carson City, United States

ICAO - CXP, IATA - CSN

Data provided by Airmate  

General information

Coordinates: N39°11'32" W119°43'57"
Elevation is 4705 feet MSL.
Magnetic variation is 14° East
View others Airports in Nevada

Operational data

Special qualification required
Current time UTC:
Current local time:
Weather
METAR: KCXP 131015Z AUTO 00000KT 10SM CLR 14/03 A3002 RMK AO2
TAF: KCXP 130530Z 1306/1406 VRB04KT P6SM FEW250 FM131500 21007KT P6SM FEW200 FM132100 25013G22KT P6SM FEW090 FM140300 22010KT P6SM FEW250
View NOTAMs / SUP AIP / TFR affecting this airport [VIEW]
Communications frequencies: [VIEW]

Runways:

RWY identifierQFULength (ft)Width (ft)SurfaceLDA (ft)
09103°610175ASPH
27283°610175ASPH

Airport contact information

Address: Carson City United States

Other aviation service providers

Flight schools

Vast Aviation

Vast Aviation
earl@vastaviation.com+1(775)530-6446

Carson Aviation Services

Carson Aviation Services

Satellite view of KCXP